createdAt,value
2023-04-05T00:00:26.628Z,3.80
2023-04-05T00:00:58.728Z,3.70
2023-04-05T00:01:32.483Z,3.70
2023-04-05T00:02:05.316Z,3.70
2023-04-05T00:02:40.592Z,3.70
2023-04-05T00:03:13.567Z,3.70
2023-04-05T00:03:47.361Z,3.70
2023-04-05T00:04:21.091Z,3.70
2023-04-05T00:04:57.535Z,3.70
2023-04-05T00:05:30.367Z,3.70
2023-04-05T00:06:02.769Z,3.70
2023-04-05T00:06:37.695Z,3.70
2023-04-05T00:07:09.524Z,3.70
2023-04-05T00:07:41.361Z,3.60
2023-04-05T00:08:24.205Z,3.60
2023-04-05T00:08:57.177Z,3.60
2023-04-05T00:09:29.086Z,3.60
2023-04-05T00:10:02.030Z,3.60
2023-04-05T00:10:34.238Z,3.60
2023-04-05T00:11:06.087Z,3.60
2023-04-05T00:11:38.919Z,3.60
2023-04-05T00:12:10.920Z,3.60
2023-04-05T00:12:42.740Z,3.60
2023-04-05T00:13:15.658Z,3.60
2023-04-05T00:13:47.484Z,3.60
2023-04-05T00:14:19.322Z,3.50
2023-04-05T00:14:52.188Z,3.50
2023-04-05T00:15:26.461Z,3.50
2023-04-05T00:16:00.739Z,3.40
2023-04-05T00:16:34.430Z,3.40
2023-04-05T00:17:06.769Z,3.30
2023-04-05T00:17:38.641Z,3.30
2023-04-05T00:18:21.492Z,3.30
2023-04-05T00:18:55.026Z,3.20
2023-04-05T00:19:26.846Z,3.20
2023-04-05T00:19:58.631Z,3.20
2023-04-05T00:20:31.376Z,3.20
2023-04-05T00:21:03.252Z,3.30
2023-04-05T00:21:35.038Z,3.30
2023-04-05T00:22:10.435Z,3.30
2023-04-05T00:22:44.509Z,3.40
2023-04-05T00:23:17.363Z,3.40
2023-04-05T00:23:51.392Z,3.40
2023-04-05T00:24:24.263Z,3.50
2023-04-05T00:24:56.038Z,3.50
2023-04-05T00:25:28.863Z,3.50
2023-04-05T00:26:01.079Z,3.50
2023-04-05T00:26:32.946Z,3.50
2023-04-05T00:27:06.002Z,3.50
2023-04-05T00:27:37.859Z,3.50
2023-04-05T00:28:09.711Z,3.50
2023-04-05T00:28:42.566Z,3.50
2023-04-05T00:29:14.451Z,3.50
2023-04-05T00:29:46.253Z,3.50
2023-04-05T00:30:20.934Z,3.50
2023-04-05T00:30:54.122Z,3.50
2023-04-05T00:31:26.024Z,3.50
2023-04-05T00:31:58.909Z,3.50
2023-04-05T00:32:31.032Z,3.50
2023-04-05T00:33:03.032Z,3.50
2023-04-05T00:33:35.232Z,3.50
2023-04-05T00:34:09.250Z,3.50
2023-04-05T00:34:41.193Z,3.50
2023-04-05T00:35:13.155Z,3.50
2023-04-05T00:35:45.938Z,3.50
2023-04-05T00:36:19.554Z,3.50
2023-04-05T00:36:52.586Z,3.50
2023-04-05T00:37:24.383Z,3.50
2023-04-05T00:37:57.236Z,3.50
2023-04-05T00:38:30.023Z,3.50
2023-04-05T00:39:01.888Z,3.60
2023-04-05T00:39:34.707Z,3.50
2023-04-05T00:40:07.938Z,3.50
2023-04-05T00:40:39.873Z,3.50
2023-04-05T00:41:12.793Z,3.50
2023-04-05T00:41:48.221Z,3.50
2023-04-05T00:42:20.668Z,3.50
2023-04-05T00:42:52.558Z,3.50
2023-04-05T00:43:24.374Z,3.50
2023-04-05T00:43:57.726Z,3.40
2023-04-05T00:44:29.559Z,3.50
2023-04-05T00:45:01.394Z,3.50
2023-04-05T00:45:34.589Z,3.50
2023-04-05T00:46:08.882Z,3.50
2023-04-05T00:46:42.296Z,3.40
2023-04-05T00:47:14.576Z,3.40
2023-04-05T00:47:46.514Z,3.40
2023-04-05T00:48:19.381Z,3.40
2023-04-05T00:48:51.353Z,3.40
2023-04-05T00:49:23.155Z,3.50
2023-04-05T00:49:55.957Z,3.50
2023-04-05T00:50:30.714Z,3.50
2023-04-05T00:51:02.934Z,3.50
2023-04-05T00:51:36.493Z,3.50
2023-04-05T00:52:08.504Z,3.50
2023-04-05T00:52:41.617Z,3.50
2023-04-05T00:53:14.768Z,3.50
2023-04-05T00:53:48.030Z,3.50
2023-04-05T00:54:19.965Z,3.50
2023-04-05T00:54:53.421Z,3.50
2023-04-05T00:55:26.544Z,3.50
2023-04-05T00:55:58.458Z,3.50
2023-04-05T00:56:32.195Z,3.50
2023-04-05T00:57:06.011Z,3.50
2023-04-05T00:57:39.081Z,3.50
2023-04-05T00:58:12.616Z,3.50
2023-04-05T00:58:44.440Z,3.50
2023-04-05T00:59:17.263Z,3.50
2023-04-05T00:59:49.075Z,3.50
2023-04-05T01:00:21.491Z,3.50
2023-04-05T01:01:01.534Z,3.50
2023-04-05T01:01:38.091Z,3.50
2023-04-05T01:02:16.901Z,3.50
2023-04-05T01:02:51.986Z,3.50
2023-04-05T01:03:26.153Z,3.50
2023-04-05T01:04:02.780Z,3.40
2023-04-05T01:04:37.836Z,3.40
2023-04-05T01:05:18.889Z,3.40
2023-04-05T01:06:03.143Z,3.40
2023-04-05T01:06:44.681Z,3.40
2023-04-05T01:07:23.576Z,3.40
2023-04-05T01:08:06.791Z,3.40
2023-04-05T01:08:45.806Z,3.40
2023-04-05T01:09:29.514Z,3.40
2023-04-05T01:10:05.055Z,3.40
2023-04-05T01:10:42.738Z,3.40
2023-04-05T01:11:17.198Z,3.40
2023-04-05T01:11:49.604Z,3.30
2023-04-05T01:12:25.962Z,3.40
2023-04-05T01:12:58.332Z,3.40
2023-04-05T01:13:30.693Z,3.40
2023-04-05T01:14:03.474Z,3.40
2023-04-05T01:14:47.790Z,3.40
2023-04-05T01:15:20.638Z,3.40
2023-04-05T01:15:52.746Z,3.30
2023-04-05T01:16:24.621Z,3.30
2023-04-05T01:16:58.958Z,3.40
2023-04-05T01:17:36.675Z,3.40
2023-04-05T01:18:10.465Z,3.30
2023-04-05T01:18:46.514Z,3.40
2023-04-05T01:19:18.946Z,3.30
2023-04-05T01:19:54.267Z,3.30
2023-04-05T01:20:28.260Z,3.40
2023-04-05T01:21:20.912Z,3.40
2023-04-05T01:22:26.542Z,3.40
2023-04-05T01:23:30.954Z,3.30
2023-04-05T01:24:16.131Z,3.30
2023-04-05T01:25:10.636Z,3.30
2023-04-05T01:26:37.318Z,3.20
2023-04-05T01:27:14.456Z,3.20
2023-04-05T01:28:11.791Z,3.20
2023-04-05T01:29:29.276Z,3.10
2023-04-05T01:30:06.610Z,3.10
2023-04-05T01:30:42.314Z,3.10
2023-04-05T01:31:23.824Z,3.10
2023-04-05T01:32:00.381Z,3.10
2023-04-05T01:32:47.359Z,3.00
2023-04-05T01:33:26.668Z,3.00
2023-04-05T01:34:03.511Z,3.00
2023-04-05T01:34:41.323Z,3.00
2023-04-05T01:35:23.323Z,3.00
2023-04-05T01:36:01.824Z,3.00
2023-04-05T01:36:40.873Z,3.00
2023-04-05T01:37:15.776Z,3.10
2023-04-05T01:37:52.855Z,3.10
2023-04-05T01:38:27.161Z,3.10
2023-04-05T01:39:00.308Z,3.10
2023-04-05T01:39:34.639Z,3.10
2023-04-05T01:40:08.872Z,3.10
2023-04-05T01:40:42.003Z,3.10
2023-04-05T01:41:14.783Z,3.10
2023-04-05T01:41:47.754Z,3.10
2023-04-05T01:42:25.241Z,3.10
2023-04-05T01:42:57.267Z,3.20
2023-04-05T01:43:30.047Z,3.10
2023-04-05T01:44:02.099Z,3.10
2023-04-05T01:44:33.929Z,3.20
2023-04-05T01:45:09.344Z,3.20
2023-04-05T01:45:41.332Z,3.20
2023-04-05T01:46:13.146Z,3.10
2023-04-05T01:46:45.582Z,3.10
2023-04-05T01:47:18.422Z,3.20
2023-04-05T01:47:50.310Z,3.20
2023-04-05T01:48:22.168Z,3.20
2023-04-05T01:48:54.941Z,3.20
2023-04-05T01:49:26.923Z,3.20
2023-04-05T01:49:58.781Z,3.30
2023-04-05T01:50:31.931Z,3.20
2023-04-05T01:51:04.077Z,3.30
2023-04-05T01:51:36.316Z,3.30
2023-04-05T01:52:09.141Z,3.30
2023-04-05T01:52:40.979Z,3.20
2023-04-05T01:53:12.777Z,3.20
2023-04-05T01:53:45.590Z,3.20
2023-04-05T01:54:17.534Z,3.30
2023-04-05T01:54:49.301Z,3.20
2023-04-05T01:55:22.042Z,3.20
2023-04-05T01:55:53.841Z,3.20
2023-04-05T01:56:25.982Z,3.20
2023-04-05T01:56:58.033Z,3.20
2023-04-05T01:57:30.830Z,3.20
2023-04-05T01:58:02.755Z,3.20
2023-04-05T01:58:34.587Z,3.10
2023-04-05T01:59:07.341Z,3.10
2023-04-05T01:59:39.410Z,3.10
2023-04-05T02:00:13.823Z,3.10
2023-04-05T02:00:46.732Z,3.10
2023-04-05T02:01:18.645Z,3.10
2023-04-05T02:01:51.541Z,3.10
2023-04-05T02:02:23.360Z,3.10
2023-04-05T02:02:56.287Z,3.10
2023-04-05T02:03:28.300Z,3.10
2023-04-05T02:04:00.315Z,3.10
2023-04-05T02:04:32.301Z,3.10
2023-04-05T02:05:05.384Z,3.10
2023-04-05T02:05:37.159Z,3.10
2023-04-05T02:06:08.964Z,3.10
2023-04-05T02:06:42.378Z,3.00
2023-04-05T02:07:15.614Z,3.10
2023-04-05T02:07:47.421Z,3.10
2023-04-05T02:08:19.234Z,3.10
2023-04-05T02:08:52.094Z,3.10
2023-04-05T02:09:23.884Z,3.10
2023-04-05T02:09:55.922Z,3.10
2023-04-05T02:10:28.808Z,3.10
2023-04-05T02:11:00.862Z,3.10
2023-04-05T02:11:32.643Z,3.10
2023-04-05T02:12:05.648Z,3.10
2023-04-05T02:12:37.455Z,3.10
2023-04-05T02:13:09.268Z,3.10
2023-04-05T02:13:42.044Z,3.10
2023-04-05T02:14:14.192Z,3.10
2023-04-05T02:14:45.951Z,3.10
2023-04-05T02:15:20.097Z,3.10
2023-04-05T02:15:52.012Z,3.10
2023-04-05T02:16:25.601Z,3.10
2023-04-05T02:16:58.428Z,3.10
2023-04-05T02:17:33.865Z,3.10
2023-04-05T02:18:07.844Z,3.10
2023-04-05T02:18:39.928Z,3.10
2023-04-05T02:19:13.084Z,3.10
2023-04-05T02:19:46.198Z,3.10
2023-04-05T02:20:18.404Z,3.10
2023-04-05T02:20:52.192Z,3.00
2023-04-05T02:21:25.969Z,3.00
2023-04-05T02:21:57.771Z,3.00
2023-04-05T02:22:30.676Z,2.90
2023-04-05T02:23:03.027Z,2.90
2023-04-05T02:23:35.447Z,2.90
2023-04-05T02:24:08.597Z,2.90
2023-04-05T02:24:41.254Z,2.90
2023-04-05T02:25:13.292Z,3.00
2023-04-05T02:25:46.422Z,3.00
2023-04-05T02:26:18.343Z,3.00
2023-04-05T02:26:51.124Z,3.00
2023-04-05T02:27:24.055Z,3.00
2023-04-05T02:27:55.929Z,3.00
2023-04-05T02:28:27.758Z,3.00
2023-04-05T02:29:00.602Z,3.00
2023-04-05T02:29:32.404Z,3.00
2023-04-05T02:30:05.431Z,3.00
2023-04-05T02:30:39.935Z,3.00
2023-04-05T02:31:12.264Z,3.00
2023-04-05T02:31:44.132Z,3.00
2023-04-05T02:32:16.981Z,2.90
2023-04-05T02:32:48.842Z,2.90
2023-04-05T02:33:22.722Z,2.90
2023-04-05T02:33:55.996Z,2.90
2023-04-05T02:34:28.026Z,2.90
2023-04-05T02:34:59.847Z,2.90
2023-04-05T02:35:32.601Z,2.90
2023-04-05T02:36:05.458Z,2.90
2023-04-05T02:36:37.364Z,2.90
2023-04-05T02:37:10.323Z,2.90
2023-04-05T02:37:42.720Z,2.90
2023-04-05T02:38:14.634Z,2.90
2023-04-05T02:38:47.388Z,2.90
2023-04-05T02:39:19.234Z,2.90
2023-04-05T02:39:51.047Z,2.90
2023-04-05T02:40:24.009Z,2.90
2023-04-05T02:40:56.159Z,2.90
2023-04-05T02:41:28.016Z,2.90
2023-04-05T02:42:01.162Z,2.90
2023-04-05T02:42:32.965Z,2.90
2023-04-05T02:43:05.034Z,2.90
2023-04-05T02:43:36.861Z,2.90
2023-04-05T02:44:09.626Z,2.90
2023-04-05T02:44:41.627Z,2.90
2023-04-05T02:45:13.423Z,2.90
2023-04-05T02:45:47.600Z,2.90
2023-04-05T02:46:19.556Z,2.90
2023-04-05T02:46:51.660Z,2.90
2023-04-05T02:47:24.555Z,2.90
2023-04-05T02:47:56.455Z,2.90
2023-04-05T02:48:28.380Z,2.90
2023-04-05T02:49:01.194Z,2.90
2023-04-05T02:49:32.974Z,2.90
2023-04-05T02:50:05.943Z,2.90
2023-04-05T02:50:37.787Z,2.90
2023-04-05T02:51:10.631Z,2.90
2023-04-05T02:51:42.396Z,2.80
2023-04-05T02:52:14.267Z,2.80
2023-04-05T02:52:47.513Z,2.80
2023-04-05T02:53:19.351Z,2.80
2023-04-05T02:53:51.160Z,2.80
2023-04-05T02:54:23.926Z,2.80
2023-04-05T02:54:55.753Z,2.80
2023-04-05T02:55:29.370Z,2.80
2023-04-05T02:56:02.139Z,2.70
2023-04-05T02:56:34.042Z,2.70
2023-04-05T02:57:06.046Z,2.70
2023-04-05T02:57:38.786Z,2.70
2023-04-05T02:58:10.671Z,2.70
2023-04-05T02:58:43.090Z,2.70
2023-04-05T02:59:15.985Z,2.70
2023-04-05T02:59:47.860Z,2.60
2023-04-05T03:00:20.582Z,2.60
2023-04-05T03:00:56.180Z,2.60
2023-04-05T03:01:29.586Z,2.60
2023-04-05T03:02:01.602Z,2.70
2023-04-05T03:02:33.482Z,2.70
2023-04-05T03:03:06.357Z,2.70
2023-04-05T03:03:40.328Z,2.70
2023-04-05T03:04:12.396Z,2.70
2023-04-05T03:04:46.475Z,2.70
2023-04-05T03:05:18.675Z,2.70
2023-04-05T03:06:01.375Z,2.80
2023-04-05T03:06:34.174Z,2.80
2023-04-05T03:07:06.091Z,2.70
2023-04-05T03:07:38.251Z,2.70
2023-04-05T03:08:18.377Z,3.00
2023-04-05T03:08:50.214Z,2.70
2023-04-05T03:09:22.371Z,2.70
2023-04-05T03:09:55.270Z,2.70
2023-04-05T03:10:28.987Z,2.70
2023-04-05T03:11:00.887Z,2.70
2023-04-05T03:11:33.993Z,2.70
2023-04-05T03:12:07.067Z,2.60
2023-04-05T03:12:38.908Z,2.60
2023-04-05T03:13:10.844Z,2.60
2023-04-05T03:13:43.654Z,2.70
2023-04-05T03:14:15.537Z,2.70
2023-04-05T03:14:47.378Z,2.70
2023-04-05T03:15:20.433Z,2.70
2023-04-05T03:15:55.321Z,2.70
2023-04-05T03:16:27.419Z,2.70
2023-04-05T03:16:59.302Z,2.70
2023-04-05T03:17:32.245Z,2.70
2023-04-05T03:18:04.521Z,2.70
2023-04-05T03:18:36.299Z,2.70
2023-04-05T03:19:09.088Z,2.70
2023-04-05T03:19:40.907Z,2.70
2023-04-05T03:20:13.258Z,2.70
2023-04-05T03:20:46.150Z,2.70
2023-04-05T03:21:18.139Z,2.60
2023-04-05T03:21:50.313Z,2.50
2023-04-05T03:22:23.116Z,2.50
2023-04-05T03:22:54.900Z,2.50
2023-04-05T03:23:29.536Z,2.50
2023-04-05T03:24:02.840Z,2.50
2023-04-05T03:24:34.635Z,2.40
2023-04-05T03:25:07.234Z,2.40
2023-04-05T03:25:41.498Z,2.40
2023-04-05T03:26:14.004Z,2.40
2023-04-05T03:26:46.902Z,2.40
2023-04-05T03:27:19.805Z,2.40
2023-04-05T03:27:52.807Z,2.40
2023-04-05T03:28:25.484Z,2.40
2023-04-05T03:28:58.247Z,2.40
2023-04-05T03:29:30.318Z,2.40
2023-04-05T03:30:02.218Z,2.40
2023-04-05T03:30:35.262Z,2.40
2023-04-05T03:31:08.464Z,2.40
2023-04-05T03:31:40.285Z,2.40
2023-04-05T03:32:13.865Z,2.40
2023-04-05T03:32:46.101Z,2.50
2023-04-05T03:33:18.181Z,2.50
2023-04-05T03:33:51.077Z,2.50
2023-04-05T03:34:22.913Z,2.50
2023-04-05T03:34:54.724Z,2.50
2023-04-05T03:35:26.866Z,2.50
2023-04-05T03:36:00.805Z,2.50
2023-04-05T03:36:41.723Z,2.50
2023-04-05T03:37:13.580Z,2.40
2023-04-05T03:37:45.589Z,2.50
2023-04-05T03:38:18.823Z,2.50
2023-04-05T03:38:51.699Z,2.50
2023-04-05T03:39:23.661Z,2.50
2023-04-05T03:39:57.296Z,2.50
2023-04-05T03:40:29.344Z,2.50
2023-04-05T03:41:01.996Z,2.50
2023-04-05T03:41:34.783Z,2.50
2023-04-05T03:42:06.618Z,2.50
2023-04-05T03:42:38.427Z,2.50
2023-04-05T03:43:11.384Z,2.50
2023-04-05T03:43:43.215Z,2.40
2023-04-05T03:44:15.247Z,2.40
2023-04-05T03:44:51.884Z,2.40
2023-04-05T03:45:37.888Z,2.40
2023-04-05T03:46:11.983Z,2.40
2023-04-05T03:46:45.214Z,2.30
2023-04-05T03:47:17.164Z,2.40
2023-04-05T03:47:49.039Z,2.30
2023-04-05T03:48:21.807Z,2.40
2023-04-05T03:48:53.646Z,2.30
2023-04-05T03:49:26.172Z,2.30
2023-04-05T03:49:57.985Z,2.30
2023-04-05T03:50:30.820Z,2.30
2023-04-05T03:51:02.658Z,2.30
2023-04-05T03:51:34.514Z,2.30
2023-04-05T03:52:08.384Z,2.30
2023-04-05T03:52:40.561Z,2.20
2023-04-05T03:53:13.346Z,2.30
2023-04-05T03:53:45.327Z,2.20
2023-04-05T03:54:17.237Z,2.20
2023-04-05T03:54:50.043Z,2.20
2023-04-05T03:55:21.878Z,2.20
2023-04-05T03:55:55.596Z,2.20
2023-04-05T03:56:28.617Z,2.20
2023-04-05T03:57:01.125Z,2.20
2023-04-05T03:57:32.990Z,2.20
2023-04-05T03:58:06.107Z,2.20
2023-04-05T03:58:38.422Z,2.00
2023-04-05T03:59:10.282Z,2.20
2023-04-05T03:59:42.264Z,2.20
2023-04-05T04:00:17.201Z,2.20
2023-04-05T04:00:49.011Z,2.20
2023-04-05T04:01:23.161Z,2.20
2023-04-05T04:01:55.300Z,2.20
2023-04-05T04:02:27.187Z,2.20
2023-04-05T04:03:00.321Z,2.20
2023-04-05T04:03:32.167Z,2.10
2023-04-05T04:04:04.928Z,2.20
2023-04-05T04:04:37.845Z,2.10
2023-04-05T04:05:10.219Z,2.10
2023-04-05T04:05:42.649Z,2.10
2023-04-05T04:06:17.123Z,2.20
2023-04-05T04:06:52.384Z,2.20
2023-04-05T04:07:24.183Z,2.20
2023-04-05T04:07:56.009Z,2.10
2023-04-05T04:08:28.792Z,2.10
2023-04-05T04:09:00.759Z,2.10
2023-04-05T04:09:32.574Z,2.20
2023-04-05T04:10:06.589Z,2.20
2023-04-05T04:10:38.422Z,2.20
2023-04-05T04:11:11.121Z,2.20
2023-04-05T04:11:43.902Z,2.20
2023-04-05T04:12:15.739Z,2.20
2023-04-05T04:12:48.526Z,2.20
2023-04-05T04:13:20.325Z,2.20
2023-04-05T04:13:52.997Z,2.20
2023-04-05T04:14:25.814Z,2.20
2023-04-05T04:14:57.689Z,2.30
2023-04-05T04:15:29.474Z,2.30
2023-04-05T04:16:02.267Z,2.30
2023-04-05T04:16:35.482Z,2.20
2023-04-05T04:17:07.361Z,2.20
2023-04-05T04:17:40.887Z,2.20
2023-04-05T04:18:12.710Z,2.20
2023-04-05T04:18:44.514Z,2.20
2023-04-05T04:19:18.123Z,2.20
2023-04-05T04:19:50.959Z,2.20
2023-04-05T04:20:22.774Z,2.20
2023-04-05T04:20:54.591Z,2.30
2023-04-05T04:21:27.891Z,2.30
2023-04-05T04:21:59.673Z,2.30
2023-04-05T04:22:33.137Z,2.30
2023-04-05T04:23:10.255Z,2.30
2023-04-05T04:23:45.849Z,2.30
2023-04-05T04:24:18.627Z,2.30
2023-04-05T04:24:53.480Z,2.30
2023-04-05T04:25:26.470Z,2.30
2023-04-05T04:25:58.263Z,2.30
2023-04-05T04:26:37.383Z,2.30
2023-04-05T04:27:10.508Z,2.30
2023-04-05T04:27:43.924Z,2.30
2023-04-05T04:28:19.564Z,2.30
2023-04-05T04:28:53.030Z,2.30
2023-04-05T04:29:30.857Z,2.30
2023-04-05T04:30:04.456Z,2.30
2023-04-05T04:30:36.416Z,2.30
2023-04-05T04:31:13.376Z,2.20
2023-04-05T04:31:48.388Z,2.20
2023-04-05T04:32:26.689Z,2.10
2023-04-05T04:32:59.723Z,2.10
2023-04-05T04:33:34.460Z,2.20
2023-04-05T04:34:06.613Z,2.10
2023-04-05T04:34:44.537Z,2.10
2023-04-05T04:35:18.316Z,2.10
2023-04-05T04:35:50.690Z,2.10
2023-04-05T04:36:34.523Z,2.20
2023-04-05T04:37:07.371Z,2.10
2023-04-05T04:37:47.197Z,2.20
2023-04-05T04:38:20.537Z,2.20
2023-04-05T04:38:53.305Z,2.20
2023-04-05T04:39:27.298Z,2.20
2023-04-05T04:40:04.130Z,2.20
2023-04-05T04:40:38.896Z,2.20
2023-04-05T04:41:11.066Z,2.20
2023-04-05T04:41:47.042Z,2.10
2023-04-05T04:42:19.808Z,2.20
2023-04-05T04:42:52.063Z,2.10
2023-04-05T04:43:27.510Z,2.10
2023-04-05T04:44:02.738Z,2.20
2023-04-05T04:44:34.543Z,2.20
2023-04-05T04:45:08.037Z,2.20
2023-04-05T04:45:40.149Z,2.20
2023-04-05T04:46:14.933Z,2.20
2023-04-05T04:46:54.662Z,2.30
2023-04-05T04:47:26.495Z,2.30
2023-04-05T04:47:59.869Z,2.30
2023-04-05T04:48:33.126Z,2.30
2023-04-05T04:49:05.920Z,2.30
2023-04-05T04:49:38.713Z,2.30
2023-04-05T04:50:11.732Z,2.20
2023-04-05T04:50:44.087Z,2.30
2023-04-05T04:51:16.864Z,2.30
2023-04-05T04:51:48.649Z,2.30
2023-04-05T04:52:20.444Z,2.30
2023-04-05T04:52:53.214Z,2.30
2023-04-05T04:53:25.104Z,2.20
2023-04-05T04:53:56.935Z,2.20
2023-04-05T04:54:29.686Z,2.20
2023-04-05T04:55:03.093Z,2.20
2023-04-05T04:55:36.133Z,2.20
2023-04-05T04:56:09.572Z,2.20
2023-04-05T04:56:41.372Z,2.20
2023-04-05T04:57:13.187Z,2.20
2023-04-05T04:57:45.932Z,2.30
2023-04-05T04:58:18.113Z,2.20
2023-04-05T04:58:49.960Z,2.20
2023-04-05T04:59:22.836Z,2.20
2023-04-05T04:59:54.891Z,2.10
2023-04-05T05:00:27.721Z,2.10
2023-04-05T05:00:59.927Z,2.10
2023-04-05T05:01:33.969Z,2.10
2023-04-05T05:02:08.210Z,2.20
2023-04-05T05:02:40.589Z,2.20
2023-04-05T05:03:13.434Z,2.10
2023-04-05T05:03:46.390Z,2.10
2023-04-05T05:04:18.295Z,2.10
2023-04-05T05:04:50.200Z,2.10
2023-04-05T05:05:23.471Z,2.10
2023-04-05T05:05:55.427Z,2.10
2023-04-05T05:06:29.608Z,2.10
2023-04-05T05:07:02.404Z,2.10
2023-04-05T05:07:34.407Z,2.10
2023-04-05T05:08:06.231Z,2.10
2023-04-05T05:08:39.035Z,2.10
2023-04-05T05:09:10.890Z,2.10
2023-04-05T05:09:42.724Z,2.10
2023-04-05T05:10:16.371Z,2.10
2023-04-05T05:10:52.996Z,2.10
2023-04-05T05:11:24.873Z,2.10
2023-04-05T05:11:58.996Z,2.10
2023-04-05T05:12:33.038Z,2.10
2023-04-05T05:13:04.942Z,2.10
2023-04-05T05:13:37.737Z,2.10
2023-04-05T05:14:09.555Z,2.10
2023-04-05T05:14:41.425Z,2.10
2023-04-05T05:15:14.194Z,2.10
2023-04-05T05:15:46.640Z,2.10
2023-04-05T05:16:20.485Z,2.10
2023-04-05T05:16:54.529Z,2.10
2023-04-05T05:17:27.758Z,2.00
2023-04-05T05:17:59.826Z,2.00
2023-04-05T05:18:32.693Z,2.00
2023-04-05T05:19:04.480Z,2.00
2023-04-05T05:19:36.323Z,2.10
2023-04-05T05:20:11.869Z,2.10
2023-04-05T05:20:43.857Z,2.10
2023-04-05T05:21:15.768Z,2.10
2023-04-05T05:21:50.035Z,2.10
2023-04-05T05:22:21.869Z,2.10
2023-04-05T05:22:53.955Z,2.20
2023-04-05T05:23:26.719Z,2.20
2023-04-05T05:23:58.517Z,2.20
2023-04-05T05:24:30.330Z,2.20
2023-04-05T05:25:03.195Z,2.30
2023-04-05T05:25:35.166Z,2.30
2023-04-05T05:26:06.956Z,2.30
2023-04-05T05:26:39.709Z,2.30
2023-04-05T05:27:11.504Z,2.30
2023-04-05T05:27:44.317Z,2.30
2023-04-05T05:28:16.650Z,2.40
2023-04-05T05:28:49.174Z,2.40
2023-04-05T05:29:21.971Z,2.40
2023-04-05T05:29:53.837Z,2.40
2023-04-05T05:30:27.033Z,2.40
2023-04-05T05:30:58.943Z,2.30
2023-04-05T05:31:32.863Z,2.40
2023-04-05T05:32:07.417Z,2.40
2023-04-05T05:32:42.561Z,2.40
2023-04-05T05:33:14.490Z,2.30
2023-04-05T05:33:49.868Z,2.30
2023-04-05T05:34:21.975Z,2.20
2023-04-05T05:34:53.847Z,2.20
2023-04-05T05:35:27.642Z,2.20
2023-04-05T05:35:59.549Z,2.20
2023-04-05T05:36:31.952Z,2.20
2023-04-05T05:37:05.160Z,2.10
2023-04-05T05:37:37.389Z,2.10
2023-04-05T05:38:11.312Z,2.10
2023-04-05T05:38:44.754Z,2.10
2023-04-05T05:39:16.662Z,2.10
2023-04-05T05:39:48.477Z,2.10
2023-04-05T05:40:21.254Z,2.10
2023-04-05T05:40:56.377Z,2.10
2023-04-05T05:41:28.192Z,2.10
2023-04-05T05:42:00.994Z,2.00
2023-04-05T05:42:33.935Z,2.00
2023-04-05T05:43:06.812Z,2.00
2023-04-05T05:43:38.657Z,2.00
2023-04-05T05:44:10.477Z,1.90
2023-04-05T05:44:43.267Z,1.90
2023-04-05T05:45:15.361Z,1.90
2023-04-05T05:45:47.324Z,1.90
2023-04-05T05:46:21.492Z,1.90
2023-04-05T05:46:53.325Z,1.90
2023-04-05T05:47:25.352Z,1.90
2023-04-05T05:47:59.543Z,1.80
2023-04-05T05:48:31.454Z,1.90
2023-04-05T05:49:04.303Z,1.90
2023-04-05T05:49:36.092Z,1.90
2023-04-05T05:50:09.962Z,1.80
2023-04-05T05:50:42.832Z,1.80
2023-04-05T05:51:14.810Z,1.90
2023-04-05T05:51:47.258Z,1.90
2023-04-05T05:52:20.056Z,1.90
2023-04-05T05:52:51.982Z,1.90
2023-04-05T05:53:23.868Z,1.90
2023-04-05T05:53:56.646Z,1.90
2023-04-05T05:54:28.504Z,2.00
2023-04-05T05:55:00.718Z,2.00
2023-04-05T05:55:33.634Z,1.90
2023-04-05T05:56:06.214Z,1.90
2023-04-05T05:56:38.023Z,1.90
2023-04-05T05:57:10.875Z,1.90
2023-04-05T05:57:42.692Z,1.90
2023-04-05T05:58:14.541Z,2.00
2023-04-05T05:58:47.888Z,2.00
2023-04-05T05:59:19.763Z,2.00
2023-04-05T05:59:51.664Z,2.00
2023-04-05T06:00:24.571Z,2.00
2023-04-05T06:00:56.504Z,2.00
2023-04-05T06:01:29.224Z,2.00
2023-04-05T06:02:01.958Z,2.00
2023-04-05T06:02:33.788Z,2.00
2023-04-05T06:03:07.286Z,2.00
2023-04-05T06:03:40.364Z,2.00
2023-04-05T06:04:12.635Z,2.00
2023-04-05T06:04:45.387Z,2.10
2023-04-05T06:05:18.430Z,2.10
2023-04-05T06:05:54.261Z,2.10
2023-04-05T06:06:27.125Z,2.10
2023-04-05T06:06:58.984Z,2.00
2023-04-05T06:07:30.891Z,2.00
2023-04-05T06:08:04.380Z,2.00
2023-04-05T06:08:36.184Z,2.00
2023-04-05T06:09:07.973Z,2.10
2023-04-05T06:09:40.732Z,2.10
2023-04-05T06:10:13.233Z,2.10
2023-04-05T06:10:45.063Z,2.20
2023-04-05T06:11:18.856Z,2.20
2023-04-05T06:11:56.316Z,2.20
2023-04-05T06:12:29.054Z,2.20
2023-04-05T06:13:02.093Z,2.20
2023-04-05T06:13:34.055Z,2.20
2023-04-05T06:14:05.854Z,2.20
2023-04-05T06:14:38.620Z,2.20
2023-04-05T06:15:11.097Z,2.20
2023-04-05T06:15:42.992Z,2.20
2023-04-05T06:16:15.830Z,2.30
2023-04-05T06:16:47.626Z,2.30
2023-04-05T06:17:20.387Z,2.30
2023-04-05T06:17:52.227Z,2.30
2023-04-05T06:18:25.497Z,2.30
2023-04-05T06:18:58.800Z,2.30
2023-04-05T06:19:30.789Z,2.20
2023-04-05T06:20:03.604Z,2.20
2023-04-05T06:20:40.314Z,2.20
2023-04-05T06:21:13.244Z,2.20
2023-04-05T06:21:45.304Z,2.10
2023-04-05T06:22:17.940Z,2.10
2023-04-05T06:22:50.737Z,2.10
2023-04-05T06:23:22.567Z,2.10
2023-04-05T06:23:55.381Z,2.10
2023-04-05T06:24:31.570Z,2.10
2023-04-05T06:25:03.465Z,2.10
2023-04-05T06:25:36.525Z,2.10
2023-04-05T06:26:08.384Z,2.10
2023-04-05T06:26:41.173Z,2.20
2023-04-05T06:27:14.549Z,2.20
2023-04-05T06:27:47.341Z,2.20
2023-04-05T06:28:19.125Z,2.30
2023-04-05T06:28:50.947Z,2.30
2023-04-05T06:29:23.739Z,2.40
2023-04-05T06:29:55.734Z,2.30
2023-04-05T06:30:27.538Z,2.30
2023-04-05T06:31:00.587Z,2.30
2023-04-05T06:31:34.263Z,2.30
2023-04-05T06:32:07.201Z,2.20
2023-04-05T06:32:39.091Z,2.20
2023-04-05T06:33:12.077Z,2.20
2023-04-05T06:33:45.414Z,2.20
2023-04-05T06:34:18.156Z,2.20
2023-04-05T06:34:50.095Z,2.20
2023-04-05T06:35:23.044Z,2.30
2023-04-05T06:35:56.008Z,2.30
2023-04-05T06:36:30.154Z,2.30
2023-04-05T06:37:02.738Z,2.30
2023-04-05T06:37:35.480Z,2.30
2023-04-05T06:38:07.263Z,2.30
2023-04-05T06:38:39.114Z,2.30
2023-04-05T06:39:11.912Z,2.30
2023-04-05T06:39:43.712Z,2.30
2023-04-05T06:40:17.090Z,2.20
2023-04-05T06:40:48.868Z,2.20
2023-04-05T06:41:20.726Z,2.20
2023-04-05T06:41:53.543Z,2.10
2023-04-05T06:42:27.767Z,2.20
2023-04-05T06:43:00.831Z,2.20
2023-04-05T06:43:32.705Z,2.10
2023-04-05T06:44:05.693Z,2.20
2023-04-05T06:44:37.501Z,2.20
2023-04-05T06:45:11.581Z,2.20
2023-04-05T06:45:43.487Z,2.30
2023-04-05T06:46:16.299Z,2.30
2023-04-05T06:46:48.196Z,2.40
2023-04-05T06:47:19.988Z,2.40
2023-04-05T06:47:52.759Z,2.40
2023-04-05T06:48:24.798Z,2.40
2023-04-05T06:49:02.296Z,2.30
2023-04-05T06:49:35.430Z,2.40
2023-04-05T06:50:08.978Z,2.40
2023-04-05T06:50:41.941Z,2.50
2023-04-05T06:51:14.099Z,2.50
2023-04-05T06:51:46.057Z,2.50
2023-04-05T06:52:18.838Z,2.60
2023-04-05T06:52:50.629Z,2.70
2023-04-05T06:53:23.416Z,2.70
2023-04-05T06:53:55.386Z,2.80
2023-04-05T06:54:28.130Z,2.80
2023-04-05T06:55:00.269Z,2.90
2023-04-05T06:55:32.721Z,2.90
2023-04-05T06:56:05.801Z,2.90
2023-04-05T06:56:37.748Z,2.90
2023-04-05T06:57:10.560Z,3.00
2023-04-05T06:57:42.369Z,3.00
2023-04-05T06:58:14.195Z,3.00
2023-04-05T06:58:47.062Z,3.00
2023-04-05T06:59:18.907Z,3.00
2023-04-05T06:59:51.635Z,3.00
2023-04-05T07:00:24.770Z,2.90
2023-04-05T07:00:56.695Z,3.00
2023-04-05T07:01:29.439Z,3.00
2023-04-05T07:02:02.291Z,3.00
2023-04-05T07:02:36.089Z,3.10
2023-04-05T07:03:08.187Z,3.10
2023-04-05T07:03:41.090Z,3.10
2023-04-05T07:04:14.506Z,3.10
2023-04-05T07:04:48.255Z,3.10
2023-04-05T07:05:20.168Z,3.10
2023-04-05T07:05:53.261Z,3.20
2023-04-05T07:06:26.158Z,3.20
2023-04-05T07:06:59.896Z,3.20
2023-04-05T07:07:31.971Z,3.20
2023-04-05T07:08:04.917Z,3.20
2023-04-05T07:08:36.712Z,3.20
2023-04-05T07:09:09.496Z,3.20
2023-04-05T07:09:41.318Z,3.10
2023-04-05T07:10:13.119Z,3.10
2023-04-05T07:10:45.930Z,3.10
2023-04-05T07:11:17.787Z,3.10
2023-04-05T07:11:49.579Z,3.20
2023-04-05T07:12:22.332Z,3.20
2023-04-05T07:12:54.148Z,3.20
2023-04-05T07:13:27.276Z,3.20
2023-04-05T07:13:59.215Z,3.10
2023-04-05T07:14:31.585Z,3.10
2023-04-05T07:15:05.420Z,3.10
2023-04-05T07:15:37.275Z,3.10
2023-04-05T07:16:09.167Z,3.10
2023-04-05T07:16:42.044Z,3.20
2023-04-05T07:17:46.674Z,3.10
2023-04-05T07:18:19.374Z,3.10
2023-04-05T07:18:52.173Z,3.10
2023-04-05T07:19:26.156Z,3.10
2023-04-05T07:19:57.961Z,3.00
2023-04-05T07:20:30.695Z,3.10
2023-04-05T07:21:04.004Z,3.10
2023-04-05T07:21:36.913Z,3.10
2023-04-05T07:22:10.176Z,3.10
2023-04-05T07:22:43.053Z,3.10
2023-04-05T07:23:14.884Z,3.10
2023-04-05T07:23:47.738Z,3.10
2023-04-05T07:24:19.797Z,3.10
2023-04-05T07:24:52.423Z,3.10
2023-04-05T07:25:25.194Z,3.10